createdAt,value
2023-04-04T00:01:33.075Z,96666.78
2023-04-04T00:03:59.723Z,96672.19
2023-04-04T00:06:26.375Z,96658.06
2023-04-04T00:08:52.946Z,96664.28
2023-04-04T00:11:19.522Z,96655.41
2023-04-04T00:13:46.061Z,96658.09
2023-04-04T00:16:12.622Z,96651.25
2023-04-04T00:18:39.231Z,96652.91
2023-04-04T00:21:05.791Z,96657.13
2023-04-04T00:23:32.340Z,96649.47
2023-04-04T00:25:58.899Z,96641.84
2023-04-04T00:28:25.464Z,96651.59
2023-04-04T00:30:52.008Z,96646.28
2023-04-04T00:33:18.644Z,96641.06
2023-04-04T00:35:45.320Z,96641.41
2023-04-04T00:38:11.881Z,96645.41
2023-04-04T00:40:38.637Z,96655.56
2023-04-04T00:43:05.360Z,96644.41
2023-04-04T00:45:31.935Z,96643.41
2023-04-04T00:47:58.548Z,96642.84
2023-04-04T00:50:25.118Z,96644.94
2023-04-04T00:52:51.727Z,96637.00
2023-04-04T00:55:18.303Z,96639.28
2023-04-04T00:57:44.828Z,96634.75
2023-04-04T01:00:11.388Z,96636.84
2023-04-04T05:06:14.048Z,96632.41
2023-04-04T05:08:40.599Z,96634.47
2023-04-04T05:11:07.143Z,96638.22
2023-04-04T05:13:33.684Z,96637.69
2023-04-04T05:16:00.229Z,96635.94
2023-04-04T05:18:26.787Z,96636.94
2023-04-04T05:20:53.331Z,96644.00
2023-04-04T05:23:19.876Z,96643.31
2023-04-04T05:25:46.399Z,96651.94
2023-04-04T05:28:12.942Z,96660.66
2023-04-04T05:30:39.591Z,96656.59
2023-04-04T05:33:06.350Z,96669.19
2023-04-04T05:35:33.032Z,96661.78
2023-04-04T05:37:59.617Z,96668.28
2023-04-04T05:40:26.158Z,96671.47
2023-04-04T05:42:52.707Z,96659.81
2023-04-04T05:45:19.255Z,96659.06
2023-04-04T05:47:45.847Z,96671.44
2023-04-04T05:50:12.416Z,96663.50
2023-04-04T05:52:38.996Z,96673.44
2023-04-04T05:55:05.527Z,96677.44
2023-04-04T05:57:32.067Z,96675.16
2023-04-04T05:59:58.612Z,96673.78
2023-04-04T06:02:25.216Z,96679.44
2023-04-04T06:04:51.825Z,96678.84
2023-04-04T06:07:18.378Z,96679.25
2023-04-04T06:09:44.945Z,96687.78
2023-04-04T06:12:11.479Z,96692.31
2023-04-04T06:14:38.035Z,96685.84
2023-04-04T06:17:04.638Z,96691.69
2023-04-04T06:19:31.205Z,96689.34
2023-04-04T06:21:57.740Z,96688.56
2023-04-04T06:24:24.290Z,96693.78
2023-04-04T06:26:50.826Z,96689.91
2023-04-04T06:29:17.379Z,96691.44
2023-04-04T06:31:43.953Z,96691.13
2023-04-04T06:34:10.546Z,96691.44
2023-04-04T06:36:37.082Z,96687.88
2023-04-04T06:39:03.639Z,96694.78
2023-04-04T06:41:30.210Z,96686.78
2023-04-04T06:43:56.768Z,96694.22
2023-04-04T06:46:23.350Z,96696.16
2023-04-04T06:48:49.914Z,96689.09
2023-04-04T06:51:16.445Z,96695.38
2023-04-04T06:53:42.991Z,96696.94
2023-04-04T06:56:09.567Z,96693.97
2023-04-04T06:58:36.156Z,96697.19
2023-04-04T07:01:02.741Z,96703.06
2023-04-04T07:03:29.284Z,96696.56
2023-04-04T07:05:55.880Z,96698.66
2023-04-04T07:08:22.413Z,96703.53
2023-04-04T07:10:48.947Z,96697.81
2023-04-04T07:13:15.524Z,96691.97
2023-04-04T07:15:42.091Z,96698.72
2023-04-04T07:18:08.663Z,96692.53
2023-04-04T07:20:35.246Z,96705.34
2023-04-04T07:23:01.805Z,96708.44
2023-04-04T07:25:28.352Z,96695.00
2023-04-04T07:28:02.234Z,96695.19
2023-04-04T07:30:29.107Z,96705.91
2023-04-04T07:32:55.716Z,96698.06
2023-04-04T07:35:22.326Z,96701.66
2023-04-04T07:37:48.866Z,96700.19
2023-04-04T07:40:15.404Z,96711.72
2023-04-04T07:42:41.959Z,96698.25
2023-04-04T07:45:08.506Z,96699.66
2023-04-04T07:47:35.091Z,96709.41
2023-04-04T07:50:01.711Z,96700.66
2023-04-04T07:52:28.255Z,96694.03
2023-04-04T07:54:54.801Z,96704.31
2023-04-04T07:57:21.426Z,96702.97
2023-04-04T07:59:47.971Z,96700.47
2023-04-04T08:02:14.550Z,96698.22
2023-04-04T08:04:41.382Z,96693.38
2023-04-04T08:07:08.151Z,96712.06
2023-04-04T08:09:34.707Z,96699.91
2023-04-04T08:12:01.277Z,96692.81
2023-04-04T08:14:27.869Z,96703.44
2023-04-04T08:16:54.429Z,96700.47
2023-04-04T08:19:20.968Z,96699.47
2023-04-04T08:21:47.529Z,96701.44
2023-04-04T08:24:14.077Z,96697.59
2023-04-04T08:26:41.482Z,96696.13
2023-04-04T08:29:08.901Z,96698.91
2023-04-04T08:31:35.477Z,96696.56
2023-04-04T08:34:02.049Z,96702.44
2023-04-04T08:36:28.710Z,96711.09
2023-04-04T08:38:55.242Z,96700.66
2023-04-04T08:41:21.808Z,96707.53
2023-04-04T08:43:48.361Z,96699.88
2023-04-04T08:46:14.954Z,96694.22
2023-04-04T08:48:41.613Z,96703.75
2023-04-04T08:51:08.144Z,96705.41
2023-04-04T08:53:34.692Z,96706.97
2023-04-04T08:56:01.229Z,96699.09
2023-04-04T08:58:27.791Z,96695.13
2023-04-04T09:00:54.381Z,96698.56
2023-04-04T09:03:21.016Z,96708.09
2023-04-04T09:05:47.599Z,96721.84
2023-04-04T09:08:14.167Z,96709.31
2023-04-04T09:10:40.922Z,96718.16
2023-04-04T09:13:15.488Z,96714.28
2023-04-04T09:15:42.942Z,96707.53
2023-04-04T09:18:09.506Z,96713.16
2023-04-04T09:20:36.074Z,96713.28
2023-04-04T09:23:02.613Z,96720.50
2023-04-04T09:25:29.138Z,96718.25
2023-04-04T09:27:55.664Z,96717.94
2023-04-04T09:30:22.233Z,96708.06
2023-04-04T09:32:48.825Z,96719.16
2023-04-04T09:35:15.415Z,96715.03
2023-04-04T09:37:41.986Z,96705.63
2023-04-04T09:40:08.660Z,96705.63
2023-04-04T09:42:35.264Z,96710.22
2023-04-04T09:45:01.836Z,96706.13
2023-04-04T09:47:31.131Z,96704.78
2023-04-04T09:49:58.344Z,96702.56
2023-04-04T09:52:24.871Z,96694.59
2023-04-04T09:54:56.758Z,96688.88
2023-04-04T09:57:23.397Z,96692.31
2023-04-04T09:59:50.000Z,96685.69
2023-04-04T10:02:16.592Z,96697.63
2023-04-04T10:04:44.575Z,96695.91
2023-04-04T10:07:12.309Z,96697.38
2023-04-04T10:09:38.944Z,96699.34
2023-04-04T10:12:05.491Z,96700.88
2023-04-04T10:14:32.032Z,96706.84
2023-04-04T10:16:58.601Z,96696.97
2023-04-04T10:19:25.157Z,96700.25
2023-04-04T10:21:51.717Z,96695.78
2023-04-04T10:24:18.291Z,96695.22
2023-04-04T10:26:44.831Z,96700.69
2023-04-04T10:29:11.370Z,96704.06
2023-04-04T10:31:37.967Z,96710.63
2023-04-04T10:34:04.652Z,96705.84
2023-04-04T10:36:31.496Z,96715.72
2023-04-04T10:38:58.080Z,96709.13
2023-04-04T10:41:24.631Z,96709.66
2023-04-04T10:43:51.191Z,96708.63
2023-04-04T10:46:17.787Z,96712.56
2023-04-04T10:48:44.388Z,96705.09
2023-04-04T10:51:10.929Z,96703.72
2023-04-04T10:53:37.754Z,96699.31
2023-04-04T10:56:04.350Z,96704.00
2023-04-04T10:58:30.947Z,96699.00
2023-04-04T11:00:57.623Z,96693.25
2023-04-04T11:03:24.332Z,96689.22
2023-04-04T11:05:50.883Z,96690.78
2023-04-04T11:08:17.498Z,96694.34
2023-04-04T11:10:44.037Z,96682.13
2023-04-04T11:13:13.232Z,96683.69
2023-04-04T11:15:40.682Z,96680.38
2023-04-04T11:18:21.419Z,96684.03
2023-04-04T11:20:54.005Z,96674.75
2023-04-04T11:23:20.568Z,96690.44
2023-04-04T11:25:47.147Z,96681.78
2023-04-04T11:28:13.725Z,96679.38
2023-04-04T11:30:40.287Z,96684.16
2023-04-04T11:33:08.160Z,96679.28
2023-04-04T11:35:34.970Z,96692.78
2023-04-04T11:38:01.561Z,96691.16
2023-04-04T11:40:28.108Z,96677.16
2023-04-04T11:42:54.716Z,96679.81
2023-04-04T11:45:21.312Z,96681.84
2023-04-04T11:47:47.894Z,96676.63
2023-04-04T11:50:14.454Z,96683.81
2023-04-04T11:52:41.028Z,96683.91
2023-04-04T11:55:07.578Z,96682.81
2023-04-04T11:57:34.128Z,96672.53
2023-04-04T12:00:00.688Z,96681.25
2023-04-04T12:02:27.346Z,96677.16
2023-04-04T12:04:54.107Z,96670.59
2023-04-04T12:07:20.777Z,96662.63
2023-04-04T12:09:47.337Z,96668.59
2023-04-04T12:12:13.878Z,96672.38
2023-04-04T12:14:40.463Z,96665.06
2023-04-04T12:17:07.011Z,96672.03
2023-04-04T12:19:33.559Z,96676.44
2023-04-04T12:22:00.139Z,96672.97
2023-04-04T12:24:26.686Z,96662.00
2023-04-04T12:26:53.253Z,96666.81
2023-04-04T12:29:19.838Z,96676.88
2023-04-04T12:31:46.443Z,96668.78
2023-04-04T12:34:13.165Z,96674.78
2023-04-04T12:36:39.807Z,96672.47
2023-04-04T12:39:06.380Z,96666.06
2023-04-04T12:41:32.941Z,96674.81
2023-04-04T12:43:59.513Z,96663.50
2023-04-04T12:46:26.166Z,96678.91
2023-04-04T12:48:52.724Z,96673.94
2023-04-04T12:51:19.284Z,96671.91
2023-04-04T12:53:45.844Z,96676.03
2023-04-04T12:56:12.400Z,96674.56
2023-04-04T12:58:38.980Z,96673.72
2023-04-04T13:01:05.574Z,96669.72
2023-04-04T13:03:32.148Z,96668.28
2023-04-04T13:05:58.731Z,96671.72
2023-04-04T13:08:25.320Z,96662.69
2023-04-04T13:10:51.873Z,96658.56
2023-04-04T13:13:18.441Z,96648.09
2023-04-04T13:15:44.983Z,96653.25
2023-04-04T13:18:11.569Z,96650.94
2023-04-04T13:20:38.106Z,96653.09
2023-04-04T13:23:04.656Z,96645.28
2023-04-04T13:25:31.205Z,96649.91
2023-04-04T13:27:57.743Z,96643.88
2023-04-04T13:30:24.288Z,96647.91
2023-04-04T13:32:50.910Z,96644.91
2023-04-04T13:35:17.500Z,96636.84
2023-04-04T13:37:44.063Z,96646.13
2023-04-04T13:40:10.607Z,96636.84
2023-04-04T13:42:37.164Z,96642.34
2023-04-04T13:45:03.732Z,96622.94
2023-04-04T13:47:30.302Z,96627.50
2023-04-04T13:49:56.873Z,96634.53
2023-04-04T13:52:23.407Z,96622.59
2023-04-04T13:54:49.954Z,96625.00
2023-04-04T13:57:16.497Z,96626.28
2023-04-04T13:59:43.045Z,96621.88
2023-04-04T14:02:09.646Z,96629.81
2023-04-04T14:04:36.302Z,96628.00
2023-04-04T14:07:02.972Z,96638.47
2023-04-04T14:09:29.527Z,96633.34
2023-04-04T14:11:56.068Z,96627.66
2023-04-04T14:14:22.609Z,96643.09
2023-04-04T14:16:49.135Z,96639.44
2023-04-04T14:19:15.746Z,96632.56
2023-04-04T14:21:42.345Z,96623.72
2023-04-04T14:24:08.878Z,96631.97
2023-04-04T14:26:35.532Z,96623.97
2023-04-04T14:29:02.092Z,96639.00
2023-04-04T14:31:28.664Z,96637.81
2023-04-04T14:33:55.226Z,96619.41
2023-04-04T14:36:21.857Z,96632.81
2023-04-04T14:38:48.473Z,96615.28
2023-04-04T14:41:15.004Z,96621.13
2023-04-04T14:43:41.531Z,96628.00
2023-04-04T14:46:08.114Z,96628.59
2023-04-04T14:48:34.671Z,96628.84
2023-04-04T14:51:01.241Z,96629.53
2023-04-04T14:53:27.770Z,96623.78
2023-04-04T14:55:54.387Z,96628.00
2023-04-04T14:58:21.004Z,96618.56
2023-04-04T15:00:47.532Z,96625.25
2023-04-04T15:03:14.114Z,96628.97
2023-04-04T15:05:40.834Z,96624.13
2023-04-04T15:08:07.483Z,96642.34
2023-04-04T15:10:34.045Z,96630.47
2023-04-04T15:13:00.611Z,96629.47
2023-04-04T15:15:27.149Z,96627.13
2023-04-04T15:17:53.801Z,96632.38
2023-04-04T15:20:20.387Z,96636.25
2023-04-04T15:22:46.935Z,96625.00
2023-04-04T15:25:13.474Z,96623.38
2023-04-04T15:27:40.031Z,96637.09
2023-04-04T15:30:06.594Z,96635.31
2023-04-04T15:32:33.189Z,96631.75
2023-04-04T15:34:59.770Z,96633.84
2023-04-04T15:37:26.327Z,96621.03
2023-04-04T15:39:54.248Z,96628.84
2023-04-04T15:42:21.127Z,96631.97
2023-04-04T15:44:47.676Z,96636.84
2023-04-04T15:47:14.206Z,96631.25
2023-04-04T15:49:40.765Z,96637.63
2023-04-04T15:52:07.331Z,96637.69
2023-04-04T15:54:33.895Z,96634.69
2023-04-04T15:57:00.440Z,96634.78
2023-04-04T15:59:27.028Z,96634.34
2023-04-04T16:01:53.789Z,96636.31
2023-04-04T16:04:20.371Z,96628.59
2023-04-04T16:06:46.924Z,96628.19
2023-04-04T16:09:13.480Z,96628.31
2023-04-04T16:11:40.014Z,96648.44
2023-04-04T16:14:06.594Z,96646.97
2023-04-04T16:16:33.143Z,96632.63
2023-04-04T16:18:59.693Z,96641.84
2023-04-04T16:21:26.249Z,96650.59
2023-04-04T16:23:52.796Z,96646.97
2023-04-04T16:26:19.338Z,96643.28
2023-04-04T16:28:47.138Z,96638.31
2023-04-04T16:31:13.876Z,96638.22
2023-04-04T16:33:40.455Z,96641.31
2023-04-04T16:36:07.024Z,96643.97
2023-04-04T16:38:33.579Z,96648.13
2023-04-04T16:41:00.134Z,96642.28
2023-04-04T16:43:26.704Z,96644.31
2023-04-04T16:45:53.254Z,96645.44
2023-04-04T16:48:19.783Z,96642.09
2023-04-04T16:50:46.350Z,96645.16
2023-04-04T16:53:12.900Z,96651.00
2023-04-04T16:55:39.452Z,96648.09
2023-04-04T16:58:05.995Z,96644.75
2023-04-04T17:00:32.544Z,96637.97
2023-04-04T17:02:59.131Z,96650.94
2023-04-04T17:05:25.728Z,96645.16
2023-04-04T17:07:52.262Z,96650.09
2023-04-04T17:10:18.796Z,96642.63
2023-04-04T17:12:45.333Z,96655.06
2023-04-04T17:15:11.881Z,96649.66
2023-04-04T17:17:38.476Z,96650.34
2023-04-04T17:20:05.042Z,96647.75
2023-04-04T17:22:31.580Z,96641.41
2023-04-04T17:24:58.129Z,96651.28
2023-04-04T17:27:24.654Z,96649.66
2023-04-04T17:29:51.176Z,96631.44
2023-04-04T17:32:17.758Z,96642.78
2023-04-04T17:34:44.334Z,96635.91
2023-04-04T17:37:10.948Z,96637.44
2023-04-04T17:39:37.604Z,96648.03
2023-04-04T17:42:04.146Z,96640.03
2023-04-04T17:44:30.695Z,96642.50
2023-04-04T17:46:57.244Z,96642.97
2023-04-04T17:49:23.819Z,96647.16
2023-04-04T17:51:50.376Z,96647.50
2023-04-04T17:54:16.918Z,96645.50
2023-04-04T17:56:43.472Z,96647.16
2023-04-04T17:59:10.044Z,96656.69
2023-04-04T18:01:36.670Z,96654.19
2023-04-04T18:04:03.311Z,96666.06
2023-04-04T18:06:29.880Z,96661.59
2023-04-04T18:08:56.436Z,96670.00
2023-04-04T18:11:23.007Z,96676.09
2023-04-04T18:13:49.564Z,96666.16
2023-04-04T18:16:16.164Z,96668.22
2023-04-04T18:18:42.759Z,96666.81
2023-04-04T18:21:09.311Z,96660.03
2023-04-04T18:23:35.875Z,96661.94
2023-04-04T18:26:02.461Z,96667.78
2023-04-04T18:28:29.017Z,96665.03
2023-04-04T18:30:55.898Z,96671.81
2023-04-04T18:33:22.474Z,96675.50
2023-04-04T18:35:49.054Z,96677.06
2023-04-04T18:38:15.625Z,96683.41
2023-04-04T18:40:42.330Z,96682.78
2023-04-04T18:43:08.987Z,96685.44
2023-04-04T18:45:40.464Z,96692.69
2023-04-04T18:48:07.347Z,96692.50
2023-04-04T18:50:33.936Z,96695.56
2023-04-04T18:53:00.479Z,96686.91
2023-04-04T18:55:27.043Z,96693.16
2023-04-04T18:57:53.611Z,96695.94
2023-04-04T19:00:20.182Z,96684.09
2023-04-04T19:02:46.867Z,96695.50
2023-04-04T19:05:13.447Z,96702.13
2023-04-04T19:07:40.019Z,96695.75
2023-04-04T19:10:06.582Z,96692.31
2023-04-04T19:12:33.134Z,96695.56
2023-04-04T19:14:59.704Z,96711.47
2023-04-04T19:17:26.255Z,96703.34
2023-04-04T19:19:52.800Z,96712.00
2023-04-04T19:22:19.346Z,96712.25
2023-04-04T19:24:45.920Z,96718.53
2023-04-04T19:27:12.482Z,96716.47
2023-04-04T19:29:39.022Z,96717.50
2023-04-04T19:32:06.154Z,96728.50
2023-04-04T19:34:32.766Z,96720.75
2023-04-04T19:36:59.347Z,96730.31
2023-04-04T19:39:25.904Z,96729.53
2023-04-04T19:41:52.453Z,96729.06
2023-04-04T19:44:19.038Z,96721.34
2023-04-04T19:46:45.592Z,96726.16
2023-04-04T19:49:12.146Z,96726.34
2023-04-04T19:51:38.714Z,96727.63
2023-04-04T19:54:05.252Z,96721.63
2023-04-04T19:56:31.799Z,96725.75
2023-04-04T19:58:58.426Z,96727.53
2023-04-04T20:01:25.039Z,96727.88
2023-04-04T20:03:51.611Z,96723.41
2023-04-04T20:06:18.175Z,96728.75
2023-04-04T20:08:44.754Z,96725.22
2023-04-04T20:11:11.284Z,96729.06
2023-04-04T20:13:37.895Z,96729.06
2023-04-04T20:16:04.447Z,96724.28
2023-04-04T20:18:31.018Z,96735.97
2023-04-04T20:20:57.637Z,96735.88
2023-04-04T20:23:24.291Z,96733.09
2023-04-04T20:25:50.862Z,96732.44
2023-04-04T20:28:17.518Z,96744.38
2023-04-04T20:30:44.091Z,96743.50
2023-04-04T20:33:10.642Z,96747.97
2023-04-04T20:35:37.241Z,96751.84
2023-04-04T20:38:03.856Z,96747.88
2023-04-04T20:40:30.460Z,96747.97
2023-04-04T20:42:57.052Z,96747.38
2023-04-04T20:45:23.642Z,96752.84
2023-04-04T20:47:50.226Z,96746.56
2023-04-04T20:50:16.818Z,96759.72
2023-04-04T20:52:43.502Z,96760.28
2023-04-04T20:55:10.055Z,96748.94
2023-04-04T20:57:36.596Z,96748.03
2023-04-04T21:00:03.165Z,96751.84
2023-04-04T21:02:29.713Z,96757.94
2023-04-04T21:04:56.283Z,96755.69
2023-04-04T21:07:22.912Z,96754.06
2023-04-04T21:09:49.459Z,96758.63
2023-04-04T21:12:16.005Z,96758.88
2023-04-04T21:14:42.551Z,96757.94
2023-04-04T21:17:09.106Z,96758.03
2023-04-04T21:19:35.655Z,96758.38
2023-04-04T21:22:02.193Z,96761.47
2023-04-04T21:24:28.730Z,96752.91
2023-04-04T21:26:55.272Z,96757.94
2023-04-04T21:29:21.862Z,96754.16
2023-04-04T21:31:48.466Z,96756.91
2023-04-04T21:34:15.089Z,96753.81
2023-04-04T21:36:41.704Z,96758.59
2023-04-04T21:39:08.291Z,96760.34
2023-04-04T21:41:34.832Z,96764.03
2023-04-04T21:44:01.443Z,96764.13
2023-04-04T21:46:28.021Z,96755.16
2023-04-04T21:48:54.601Z,96764.78
2023-04-04T21:51:21.169Z,96759.84
2023-04-04T21:53:47.728Z,96755.63
2023-04-04T21:56:14.286Z,96760.94
2023-04-04T21:58:40.852Z,96759.47
2023-04-04T22:01:07.411Z,96756.72
2023-04-04T22:03:33.945Z,96761.03
2023-04-04T22:06:00.487Z,96773.81
2023-04-04T22:08:27.041Z,96763.44
2023-04-04T22:10:53.579Z,96764.78
2023-04-04T22:13:20.159Z,96756.47
2023-04-04T22:15:46.986Z,96762.38
2023-04-04T22:18:13.644Z,96760.16
2023-04-04T22:20:40.316Z,96760.25
2023-04-04T22:23:06.976Z,96756.81
2023-04-04T22:25:33.557Z,96757.94
2023-04-04T22:28:00.104Z,96761.97
2023-04-04T22:30:26.645Z,96764.78
2023-04-04T22:32:53.219Z,96769.00
2023-04-04T22:35:19.788Z,96762.03
2023-04-04T22:37:46.329Z,96771.38
2023-04-04T22:40:12.859Z,96769.50
2023-04-04T22:42:39.398Z,96764.72
2023-04-04T22:45:05.963Z,96764.50
2023-04-04T22:47:32.536Z,96768.09
2023-04-04T22:49:59.090Z,96763.28
2023-04-04T22:52:25.636Z,96769.19
2023-04-04T22:54:52.177Z,96775.16
2023-04-04T22:57:18.726Z,96774.13
2023-04-04T22:59:45.273Z,96769.19
2023-04-04T23:02:11.799Z,96764.03
2023-04-04T23:04:38.466Z,96776.13
2023-04-04T23:07:05.080Z,96769.94
2023-04-04T23:09:31.626Z,96774.59
2023-04-04T23:11:58.192Z,96772.50
2023-04-04T23:14:24.743Z,96780.25
2023-04-04T23:16:51.282Z,96780.59
2023-04-04T23:19:17.831Z,96778.03
2023-04-04T23:21:44.384Z,96775.28
2023-04-04T23:24:10.945Z,96771.97
2023-04-04T23:26:37.521Z,96774.81
2023-04-04T23:29:04.071Z,96772.75
2023-04-04T23:31:30.677Z,96777.28
2023-04-04T23:33:57.296Z,96775.06
2023-04-04T23:36:23.872Z,96777.25
2023-04-04T23:38:50.442Z,96771.47
2023-04-04T23:41:16.991Z,96769.75
2023-04-04T23:43:43.545Z,96767.97
2023-04-04T23:46:10.103Z,96763.22
2023-04-04T23:48:36.661Z,96773.03
2023-04-04T23:51:03.199Z,96764.97
2023-04-04T23:53:29.771Z,96757.00
2023-04-04T23:55:56.332Z,96764.53
2023-04-04T23:58:22.881Z,96770.28
